Time;durP1;ratioP1;P1;durP2;ratioP2;P2;SDS_P1;SDS_P2;PMS_P1;PMS_P2;Temp;Humidity;BMP_temperature;BMP_pressure;BME280_temperature;BME280_humidity;BME280_pressure;Samples;Min_cycle;Max_cycle;Signal;HPM_P1;HPM_P2
2023/05/23 00:01:53;;;;;;;5.72;4.60;;;;;;;14.18;85.08;100540.00;5016488;28;20136;-82
2023/05/23 00:04:20;;;;;;;7.00;4.95;;;;;;;14.19;85.18;100534.63;5010904;28;20041;-81
2023/05/23 00:06:49;;;;;;;5.80;4.55;;;;;;;14.15;85.53;100527.72;5033103;28;20037;-84
2023/05/23 00:09:16;;;;;;;8.23;4.93;;;;;;;14.17;85.58;100530.31;5050421;28;20048;-81
2023/05/23 00:11:44;;;;;;;5.88;5.25;;;;;;;14.23;85.55;100530.97;5025682;28;20045;-81
2023/05/23 00:14:12;;;;;;;6.32;5.72;;;;;;;14.18;85.41;100526.72;5034882;28;20528;-83
2023/05/23 00:16:43;;;;;;;7.00;4.97;;;;;;;14.21;85.19;100522.19;5019848;28;20053;-82
2023/05/23 00:19:13;;;;;;;6.30;4.93;;;;;;;14.14;85.92;100525.13;5036616;28;20041;-82
2023/05/23 00:21:42;;;;;;;6.07;5.10;;;;;;;14.11;86.05;100520.78;5019100;28;20139;-83
2023/05/23 00:24:09;;;;;;;6.60;4.70;;;;;;;14.19;84.08;100528.47;5053735;28;20072;-82
2023/05/23 00:26:36;;;;;;;7.45;5.32;;;;;;;14.12;83.69;100526.94;5034795;28;20068;-83
2023/05/23 00:29:02;;;;;;;5.35;4.75;;;;;;;14.11;83.77;100522.56;5015200;28;20593;-84
2023/05/23 00:31:29;;;;;;;6.15;5.03;;;;;;;14.06;84.03;100523.63;5033979;28;20496;-81
2023/05/23 00:33:56;;;;;;;6.72;4.78;;;;;;;14.03;83.65;100528.16;5050931;28;20045;-84
2023/05/23 00:36:22;;;;;;;6.88;5.47;;;;;;;13.94;83.82;100524.03;5020375;28;20041;-81
2023/05/23 00:38:49;;;;;;;5.82;4.45;;;;;;;13.92;83.34;100519.72;5035037;28;20036;-82
2023/05/23 00:41:17;;;;;;;9.27;4.93;;;;;;;13.88;83.62;100523.44;5052456;28;20589;-82
2023/05/23 00:43:44;;;;;;;6.40;4.93;;;;;;;13.81;84.29;100522.78;5067078;28;20040;-83
2023/05/23 00:46:10;;;;;;;5.22;4.68;;;;;;;13.82;84.34;100519.19;5036088;28;20073;-82
2023/05/23 00:48:37;;;;;;;7.65;5.03;;;;;;;13.79;84.88;100525.50;5052256;28;20059;-81
2023/05/23 00:51:04;;;;;;;6.88;4.82;;;;;;;13.73;85.16;100522.19;5019271;28;20107;-82
2023/05/23 00:53:32;;;;;;;6.22;5.28;;;;;;;13.68;85.09;100519.66;5035604;28;20084;-82
2023/05/23 00:55:59;;;;;;;6.60;5.03;;;;;;;13.84;83.33;100514.69;5034965;28;20166;-83
2023/05/23 00:58:26;;;;;;;6.13;4.78;;;;;;;13.67;83.68;100509.13;5018823;28;20478;-83
2023/05/23 01:00:54;;;;;;;7.70;5.03;;;;;;;13.62;84.57;100511.94;5035916;28;20120;-83
2023/05/23 01:03:22;;;;;;;6.80;4.85;;;;;;;13.45;85.55;100517.84;5067080;28;20553;-84
2023/05/23 01:05:50;;;;;;;6.82;5.10;;;;;;;13.37;86.90;100514.59;5035065;28;20030;-81
2023/05/23 01:08:17;;;;;;;5.97;5.18;;;;;;;13.36;86.41;100518.13;5018815;28;20514;-84
2023/05/23 01:10:43;;;;;;;7.63;5.10;;;;;;;13.29;86.60;100518.44;5044432;28;20033;-82
2023/05/23 01:13:28;;;;;;;6.38;5.35;;;;;;;13.23;87.85;100516.84;5018836;28;20045;-83
2023/05/23 01:16:08;;;;;;;6.72;5.38;;;;;;;13.11;88.95;100512.75;5035754;28;20037;-82
2023/05/23 01:18:49;;;;;;;7.47;4.82;;;;;;;13.05;89.77;100510.31;5028097;28;20053;-82
2023/05/23 01:21:17;;;;;;;6.18;4.80;;;;;;;13.07;89.83;100510.28;5032066;28;20037;-81
2023/05/23 01:24:20;;;;;;;6.15;5.25;;;;;;;13.14;88.67;100503.84;5015347;28;20037;-81
2023/05/23 01:27:19;;;;;;;5.78;4.53;;;;;;;13.02;89.30;100505.09;5025358;28;20569;-81
2023/05/23 01:29:47;;;;;;;7.32;5.00;;;;;;;12.94;89.39;100499.19;5048481;28;20048;-82
2023/05/23 01:32:15;;;;;;;6.15;5.32;;;;;;;12.91;90.43;100505.47;5065767;28;20045;-81
2023/05/23 01:34:42;;;;;;;6.93;5.90;;;;;;;12.85;90.65;100497.69;5045498;28;20319;-82
2023/05/23 01:37:10;;;;;;;6.13;4.78;;;;;;;12.82;90.57;100489.00;5016200;28;20067;-82
2023/05/23 01:39:37;;;;;;;7.30;5.25;;;;;;;12.76;91.65;100494.47;5047256;28;20040;-81
2023/05/23 01:42:04;;;;;;;6.75;4.80;;;;;;;12.80;92.21;100488.19;5031406;28;20094;-81
2023/05/23 01:44:33;;;;;;;6.50;5.18;;;;;;;12.76;93.45;100491.84;5065281;28;20083;-81
2023/05/23 01:47:04;;;;;;;7.47;5.10;;;;;;;12.71;93.92;100494.66;5014592;28;20401;-81
2023/05/23 01:49:31;;;;;;;7.90;4.75;;;;;;;12.74;93.17;100498.97;5012344;28;20042;-81
2023/05/23 01:51:59;;;;;;;6.82;5.03;;;;;;;12.64;94.27;100488.66;5014992;28;20079;-80
2023/05/23 01:54:28;;;;;;;6.00;4.75;;;;;;;12.63;94.67;100491.38;5029563;28;20036;-81
2023/05/23 01:56:58;;;;;;;6.78;5.45;;;;;;;12.62;95.14;100485.19;5029310;28;20033;-81
2023/05/23 01:59:25;;;;;;;6.72;5.35;;;;;;;12.67;95.22;100479.75;5048414;28;20272;-81
2023/05/23 02:01:51;;;;;;;6.78;5.30;;;;;;;12.58;96.26;100485.34;5014028;28;20041;-81
2023/05/23 02:04:18;;;;;;;5.68;4.80;;;;;;;12.58;97.04;100480.03;5047193;28;20128;-81
2023/05/23 02:06:46;;;;;;;6.88;5.13;;;;;;;12.57;97.42;100479.16;5030047;28;20141;-81
2023/05/23 02:09:13;;;;;;;7.78;5.50;;;;;;;12.62;97.39;100479.91;5064690;28;20048;-81
2023/05/23 02:11:39;;;;;;;5.57;4.85;;;;;;;12.62;98.23;100471.09;5030651;28;20051;-81
2023/05/23 02:14:10;;;;;;;8.23;5.18;;;;;;;12.59;98.02;100474.69;5029073;28;20689;-81
2023/05/23 02:16:36;;;;;;;7.88;4.97;;;;;;;12.58;98.69;100472.09;5030487;28;20123;-81
2023/05/23 02:19:03;;;;;;;7.57;5.60;;;;;;;12.63;98.86;100473.69;5032521;28;20067;-80
2023/05/23 02:21:30;;;;;;;7.72;5.30;;;;;;;12.59;99.85;100469.38;5030343;28;20044;-81
2023/05/23 02:24:00;;;;;;;6.43;5.10;;;;;;;12.67;99.77;100461.19;5048034;28;20044;-81
2023/05/23 02:26:27;;;;;;;8.00;5.25;;;;;;;12.61;100.00;100467.56;5011194;28;20125;-82
2023/05/23 02:28:53;;;;;;;6.68;5.25;;;;;;;12.67;99.06;100462.06;5013786;28;20045;-81
2023/05/23 02:31:21;;;;;;;5.35;4.75;;;;;;;12.78;99.04;100464.38;5023766;28;20050;-81
2023/05/23 02:33:47;;;;;;;9.07;5.63;;;;;;;12.74;99.21;100457.44;5013915;28;20045;-80
2023/05/23 02:36:14;;;;;;;6.78;5.15;;;;;;;12.71;99.70;100452.22;5030602;28;20044;-81
2023/05/23 02:38:41;;;;;;;8.02;5.50;;;;;;;12.71;98.99;100454.88;5029870;28;20056;-80
2023/05/23 02:41:07;;;;;;;8.27;5.53;;;;;;;12.71;98.80;100446.94;5030650;28;20045;-81
2023/05/23 02:43:34;;;;;;;8.98;5.57;;;;;;;12.74;97.32;100441.53;5029679;28;20569;-81
2023/05/23 02:46:01;;;;;;;6.15;4.68;;;;;;;12.75;97.76;100448.56;5044624;28;20067;-81
2023/05/23 02:48:27;;;;;;;7.35;5.47;;;;;;;12.77;98.38;100452.00;5031131;28;20036;-81
2023/05/23 02:50:54;;;;;;;6.60;5.40;;;;;;;12.77;97.76;100452.00;5029537;28;20040;-81
2023/05/23 02:53:21;;;;;;;5.72;4.72;;;;;;;12.79;98.58;100449.34;5027625;28;20044;-82
2023/05/23 02:55:48;;;;;;;6.18;5.10;;;;;;;12.75;99.14;100456.50;5013864;28;20068;-81
2023/05/23 02:58:15;;;;;;;7.53;5.15;;;;;;;12.82;99.08;100455.38;5044199;28;20033;-81
2023/05/23 03:00:42;;;;;;;7.18;5.22;;;;;;;12.83;98.62;100456.25;5020615;28;20416;-81
2023/05/23 03:03:10;;;;;;;5.60;4.93;;;;;;;12.79;99.22;100452.84;5026219;28;20123;-81
2023/05/23 03:05:36;;;;;;;6.25;5.10;;;;;;;12.80;99.93;100453.72;5029818;28;20489;-82
2023/05/23 03:08:04;;;;;;;6.63;5.00;;;;;;;12.85;99.80;100455.28;5012871;28;20037;-81
2023/05/23 03:10:31;;;;;;;6.85;5.20;;;;;;;12.91;100.00;100456.88;5029790;28;20041;-81
2023/05/23 03:12:57;;;;;;;5.63;4.80;;;;;;;12.89;100.00;100451.63;5046219;28;20045;-80
2023/05/23 03:15:24;;;;;;;6.38;5.35;;;;;;;12.94;100.00;100448.81;5029345;28;20045;-80
2023/05/23 03:17:51;;;;;;;8.13;5.35;;;;;;;12.95;99.99;100453.22;5013582;28;20033;-80
2023/05/23 03:20:18;;;;;;;6.82;5.47;;;;;;;13.01;100.00;100452.13;5045837;28;20033;-81
2023/05/23 03:22:45;;;;;;;6.05;5.28;;;;;;;12.98;100.00;100446.94;5028846;28;20175;-81
2023/05/23 03:25:14;;;;;;;6.90;6.13;;;;;;;12.96;100.00;100447.84;5030660;28;20047;-81
2023/05/23 03:27:41;;;;;;;6.63;5.68;;;;;;;13.02;100.00;100445.91;5042088;28;20044;-80
2023/05/23 03:30:09;;;;;;;6.95;5.55;;;;;;;13.07;100.00;100449.28;5029697;28;20040;-82
2023/05/23 03:32:36;;;;;;;9.18;5.78;;;;;;;13.05;100.00;100451.13;5039469;28;20502;-81
2023/05/23 03:35:03;;;;;;;6.60;5.32;;;;;;;13.09;100.00;100442.13;5014297;28;20472;-81
2023/05/23 03:37:30;;;;;;;7.93;5.32;;;;;;;13.14;100.00;100440.19;5048978;28;20037;-81
2023/05/23 03:39:57;;;;;;;6.28;5.00;;;;;;;13.13;100.00;100444.63;5030617;28;20413;-81
2023/05/23 03:42:23;;;;;;;6.30;5.15;;;;;;;13.09;100.00;100444.78;5047207;28;20047;-81
2023/05/23 03:44:50;;;;;;;8.55;6.18;;;;;;;13.11;100.00;100433.19;5046885;28;20040;-82
2023/05/23 03:47:17;;;;;;;6.53;5.53;;;;;;;13.16;100.00;100443.66;5031177;28;20140;-82
2023/05/23 03:49:44;;;;;;;6.05;5.32;;;;;;;13.19;100.00;100441.78;5013379;28;20037;-82
2023/05/23 03:52:11;;;;;;;6.60;5.80;;;;;;;13.18;100.00;100437.38;5031709;28;20044;-82
2023/05/23 03:54:38;;;;;;;7.22;5.95;;;;;;;13.13;100.00;100441.13;5022564;28;20045;-82
2023/05/23 03:57:05;;;;;;;7.82;5.95;;;;;;;13.12;100.00;100439.38;5032339;28;20048;-82
2023/05/23 03:59:32;;;;;;;7.45;6.20;;;;;;;13.21;100.00;100441.75;5014879;28;20528;-82
2023/05/23 04:01:59;;;;;;;6.43;5.80;;;;;;;13.19;100.00;100440.88;5016276;28;20041;-83
2023/05/23 04:04:28;;;;;;;6.40;5.38;;;;;;;13.17;100.00;100440.94;5059950;28;20033;-82
2023/05/23 04:06:55;;;;;;;9.32;6.25;;;;;;;13.22;100.00;100447.00;5032362;28;20037;-82
2023/05/23 04:09:22;;;;;;;7.97;6.30;;;;;;;13.28;100.00;100442.38;5017856;28;20145;-82
2023/05/23 04:11:49;;;;;;;7.63;6.78;;;;;;;13.24;100.00;100441.63;5053829;28;20405;-81
2023/05/23 04:14:16;;;;;;;8.63;7.07;;;;;;;13.22;100.00;100444.34;5040349;28;20535;-81
2023/05/23 04:16:43;;;;;;;8.30;6.90;;;;;;;13.23;100.00;100440.75;5030189;28;20130;-82
2023/05/23 04:19:11;;;;;;;10.52;6.47;;;;;;;13.36;100.00;100435.88;5016202;28;20043;-81
2023/05/23 04:21:38;;;;;;;9.13;6.57;;;;;;;13.27;100.00;100441.50;5035458;28;20052;-82
2023/05/23 04:24:05;;;;;;;9.93;6.80;;;;;;;13.22;100.00;100438.16;5064857;28;20068;-82
2023/05/23 04:26:31;;;;;;;7.35;6.32;;;;;;;13.18;100.00;100436.50;5074646;28;20125;-83
2023/05/23 04:28:59;;;;;;;7.18;6.03;;;;;;;13.20;100.00;100430.28;5049641;28;20033;-81
2023/05/23 04:31:25;;;;;;;6.40;5.80;;;;;;;13.34;100.00;100435.06;5015798;28;20131;-81
2023/05/23 04:33:52;;;;;;;8.82;6.57;;;;;;;13.43;100.00;100437.41;5050291;28;20028;-82
2023/05/23 04:36:19;;;;;;;8.73;6.70;;;;;;;13.32;100.00;100434.28;5059191;28;20044;-81
2023/05/23 04:38:46;;;;;;;7.90;6.32;;;;;;;13.44;100.00;100433.81;5048380;28;20032;-81
2023/05/23 04:41:15;;;;;;;7.13;5.88;;;;;;;13.43;100.00;100429.44;5041734;28;20722;-84
2023/05/23 04:43:41;;;;;;;8.35;6.50;;;;;;;13.59;100.00;100426.22;5034301;28;20041;-83
2023/05/23 04:46:09;;;;;;;8.70;6.40;;;;;;;13.60;100.00;100420.00;5016706;28;20045;-84
2023/05/23 04:48:37;;;;;;;7.95;6.75;;;;;;;13.61;100.00;100416.41;5045059;28;20037;-82
2023/05/23 04:51:07;;;;;;;8.07;6.28;;;;;;;13.56;100.00;100421.91;5015964;28;20072;-82
2023/05/23 04:53:35;;;;;;;6.60;5.90;;;;;;;13.55;100.00;100419.31;5035871;28;20044;-81
2023/05/23 04:56:02;;;;;;;7.95;6.07;;;;;;;13.58;100.00;100420.06;5014294;28;20052;-82
2023/05/23 04:58:30;;;;;;;7.40;6.60;;;;;;;13.68;100.00;100410.81;5029006;28;20126;-80
2023/05/23 05:00:57;;;;;;;8.50;6.15;;;;;;;13.65;100.00;100407.44;5041285;28;20136;-80
2023/05/23 05:03:25;;;;;;;9.07;6.93;;;;;;;13.71;100.00;100409.88;5037238;28;20118;-81
2023/05/23 05:05:52;;;;;;;7.40;6.00;;;;;;;13.67;100.00;100410.88;5042819;28;20557;-82
2023/05/23 05:08:19;;;;;;;8.55;6.45;;;;;;;13.76;100.00;100408.75;5016341;28;20363;-82
2023/05/23 05:10:46;;;;;;;7.65;6.95;;;;;;;13.84;100.00;100403.16;5034014;28;20125;-83
2023/05/23 05:13:12;;;;;;;7.15;6.43;;;;;;;13.89;100.00;100403.84;5024910;28;20127;-82
2023/05/23 05:15:39;;;;;;;7.32;6.63;;;;;;;13.92;100.00;100409.03;5042309;28;20045;-80
2023/05/23 05:18:06;;;;;;;7.70;6.53;;;;;;;14.01;100.00;100406.03;5049275;28;20045;-82
2023/05/23 05:20:33;;;;;;;8.23;7.13;;;;;;;14.04;100.00;100403.28;5064959;28;20041;-83
2023/05/23 05:23:00;;;;;;;7.50;6.57;;;;;;;14.05;100.00;100414.75;5022019;28;20045;-81
2023/05/23 05:25:30;;;;;;;7.07;6.03;;;;;;;14.04;100.00;100413.00;5048754;28;20048;-83
2023/05/23 05:28:04;;;;;;;8.13;5.80;;;;;;;14.11;100.00;100410.97;5026095;28;20038;-83
2023/05/23 05:30:34;;;;;;;6.97;6.05;;;;;;;14.16;100.00;100412.53;5030350;28;20123;-83
2023/05/23 05:33:03;;;;;;;8.60;6.72;;;;;;;14.20;100.00;100415.94;5015771;28;20045;-84
2023/05/23 05:35:33;;;;;;;7.15;6.45;;;;;;;14.23;100.00;100414.03;5043486;28;20041;-80
2023/05/23 05:38:03;;;;;;;8.15;6.80;;;;;;;14.22;100.00;100414.09;5034363;28;20057;-81
2023/05/23 05:40:33;;;;;;;8.35;6.63;;;;;;;14.18;100.00;100428.41;5020538;28;20064;-80
2023/05/23 05:43:00;;;;;;;10.05;7.13;;;;;;;14.22;100.00;100425.59;5018652;28;20453;-80
2023/05/23 05:45:27;;;;;;;7.32;5.95;;;;;;;14.18;100.00;100425.75;5021242;28;20128;-82
2023/05/23 05:47:53;;;;;;;8.63;6.47;;;;;;;14.24;100.00;100420.22;5067807;28;20449;-83
2023/05/23 05:50:20;;;;;;;6.90;6.20;;;;;;;14.30;100.00;100414.66;5031029;28;20076;-82
2023/05/23 05:52:47;;;;;;;6.80;5.65;;;;;;;14.40;100.00;100407.19;5045533;28;20042;-82
2023/05/23 05:55:14;;;;;;;10.25;6.95;;;;;;;14.34;100.00;100402.97;5031318;28;20588;-81
2023/05/23 05:57:40;;;;;;;6.75;6.00;;;;;;;14.41;100.00;100401.81;5041879;28;20584;-81
2023/05/23 06:00:14;;;;;;;23.50;7.85;;;;;;;14.46;100.00;100397.22;5041530;28;20051;-83
2023/05/23 06:02:46;;;;;;;9.77;6.70;;;;;;;14.34;100.00;100398.53;5044821;28;20248;-80
2023/05/23 06:05:15;;;;;;;8.43;6.60;;;;;;;14.43;100.00;100399.94;5035634;28;20037;-82
2023/05/23 06:07:42;;;;;;;8.00;5.75;;;;;;;14.57;100.00;100396.78;5048208;28;20048;-82
2023/05/23 06:10:12;;;;;;;7.05;6.32;;;;;;;14.70;100.00;100405.97;5033034;28;20055;-83
2023/05/23 06:12:39;;;;;;;7.70;6.68;;;;;;;14.90;100.00;100405.13;5061028;28;20036;-83
2023/05/23 06:15:06;;;;;;;10.40;6.40;;;;;;;15.10;100.00;100407.81;5035978;28;20073;-83
2023/05/23 06:17:33;;;;;;;8.07;6.80;;;;;;;15.17;100.00;100406.59;5018108;28;20043;-82
2023/05/23 06:20:00;;;;;;;31.98;9.07;;;;;;;15.09;100.00;100406.06;5026671;28;20539;-82
2023/05/23 06:22:27;;;;;;;14.57;7.80;;;;;;;15.10;100.00;100402.47;5050902;28;20048;-82
2023/05/23 06:24:53;;;;;;;8.15;6.88;;;;;;;15.07;100.00;100404.41;5016710;28;20055;-83
2023/05/23 06:27:20;;;;;;;8.57;6.82;;;;;;;15.14;100.00;100403.22;5032860;28;20061;-83
2023/05/23 06:29:47;;;;;;;10.30;6.32;;;;;;;15.21;100.00;100410.00;5049498;28;20079;-79
2023/05/23 06:32:13;;;;;;;7.10;6.28;;;;;;;15.29;100.00;100404.34;5032746;28;20041;-82
2023/05/23 06:34:40;;;;;;;11.23;7.25;;;;;;;15.45;98.69;100395.59;5016923;28;20472;-82
2023/05/23 06:37:07;;;;;;;19.95;7.90;;;;;;;15.39;99.32;100401.22;5015698;28;20553;-80
2023/05/23 06:39:34;;;;;;;28.08;9.45;;;;;;;15.29;100.00;100397.22;5016745;28;20440;-81
2023/05/23 06:42:01;;;;;;;49.80;11.25;;;;;;;15.32;100.00;100391.78;5028335;28;20064;-82
2023/05/23 06:44:27;;;;;;;34.83;9.63;;;;;;;15.38;100.00;100390.63;5043339;28;20051;-82
2023/05/23 06:46:56;;;;;;;56.42;12.70;;;;;;;15.49;100.00;100388.34;5050300;28;20041;-83
2023/05/23 06:49:23;;;;;;;28.23;9.43;;;;;;;15.57;100.00;100388.88;5031282;28;20056;-80
2023/05/23 06:51:50;;;;;;;17.45;7.05;;;;;;;15.69;98.43;100385.66;5038604;28;20098;-82
2023/05/23 06:54:18;;;;;;;11.30;6.85;;;;;;;15.79;97.64;100385.25;5043125;28;20041;-82
2023/05/23 06:56:45;;;;;;;7.43;6.22;;;;;;;15.94;95.73;100395.19;5014163;28;20125;-81
2023/05/23 06:59:11;;;;;;;7.30;6.15;;;;;;;16.09;92.37;100389.16;5011917;28;20059;-82
2023/05/23 07:01:38;;;;;;;9.57;6.57;;;;;;;16.19;90.84;100385.09;5024366;28;20133;-82
2023/05/23 07:04:05;;;;;;;9.30;6.20;;;;;;;16.53;82.33;100386.13;5041800;28;20131;-81
2023/05/23 07:06:34;;;;;;;452.95;55.92;;;;;;;16.61;82.77;100394.63;5022451;28;20473;-82
2023/05/23 07:09:01;;;;;;;8.80;6.85;;;;;;;16.55;78.75;100389.56;5038549;28;20442;-82
2023/05/23 07:11:27;;;;;;;9.70;6.20;;;;;;;16.31;77.32;100394.28;5034293;28;20048;-80
2023/05/23 07:13:54;;;;;;;9.65;6.35;;;;;;;16.56;78.00;100391.28;5036905;28;20578;-82
2023/05/23 07:16:21;;;;;;;7.78;6.22;;;;;;;16.68;81.04;100397.84;5012807;28;20037;-82
2023/05/23 07:18:48;;;;;;;34.90;9.02;;;;;;;16.75;81.88;100404.63;5032108;28;20037;-81
2023/05/23 07:21:14;;;;;;;400.50;46.58;;;;;;;16.83;82.07;100397.13;5032478;28;20497;-81
2023/05/23 07:23:41;;;;;;;107.95;19.95;;;;;;;16.95;81.31;100398.28;5031581;28;20037;-83
2023/05/23 07:26:08;;;;;;;21.85;7.57;;;;;;;17.06;78.75;100394.13;5031629;28;20124;-81
2023/05/23 07:28:36;;;;;;;13.10;7.07;;;;;;;17.23;73.77;100385.22;5019536;28;20457;-81
2023/05/23 07:31:03;;;;;;;7.75;6.38;;;;;;;17.39;74.50;100388.81;5057728;28;20049;-81
2023/05/23 07:33:33;;;;;;;8.90;6.50;;;;;;;17.42;72.76;100388.69;5047987;28;20124;-81
2023/05/23 07:36:00;;;;;;;24.42;7.53;;;;;;;17.45;74.06;100391.19;5061591;28;20041;-81
2023/05/23 07:38:26;;;;;;;10.23;6.85;;;;;;;17.60;71.70;100394.84;5040576;28;20414;-81
2023/05/23 07:40:53;;;;;;;7.55;5.55;;;;;;;17.69;71.25;100383.66;5030930;28;20043;-83
2023/05/23 07:43:36;;;;;;;6.90;6.20;;;;;;;17.76;71.15;100386.03;5059661;28;20045;-82
2023/05/23 07:46:03;;;;;;;10.60;6.43;;;;;;;17.82;71.75;100385.69;5038951;28;20045;-83
2023/05/23 07:48:30;;;;;;;9.80;6.00;;;;;;;17.90;67.37;100370.94;5028234;28;20155;-81
2023/05/23 07:50:57;;;;;;;9.55;5.93;;;;;;;17.93;68.92;100376.16;5041072;28;20032;-82
2023/05/23 07:53:24;;;;;;;7.45;6.07;;;;;;;18.07;67.81;100377.16;5014232;28;20045;-83
2023/05/23 07:55:52;;;;;;;7.68;5.90;;;;;;;18.35;64.59;100374.69;5015405;28;20465;-83
2023/05/23 07:58:19;;;;;;;8.30;6.60;;;;;;;18.14;64.60;100374.06;5043424;28;20061;-81
2023/05/23 08:00:45;;;;;;;7.88;5.82;;;;;;;18.02;65.32;100369.44;5013817;28;20041;-83
2023/05/23 08:03:12;;;;;;;7.20;6.30;;;;;;;18.17;67.09;100371.25;5044854;28;20037;-82
2023/05/23 08:05:39;;;;;;;6.60;5.70;;;;;;;18.30;68.24;100379.41;5019688;28;20071;-82
2023/05/23 08:08:06;;;;;;;8.55;6.45;;;;;;;18.51;62.21;100375.53;5038931;28;20040;-85
2023/05/23 08:10:32;;;;;;;7.07;6.00;;;;;;;18.72;59.12;100388.63;5017567;28;20045;-83
2023/05/23 08:12:59;;;;;;;7.50;6.18;;;;;;;18.70;62.25;100395.91;5031008;28;20472;-81
2023/05/23 08:15:27;;;;;;;7.53;6.15;;;;;;;18.80;63.71;100391.72;5017333;28;20099;-82
2023/05/23 08:17:55;;;;;;;7.25;5.95;;;;;;;18.91;62.43;100391.94;5018768;28;20036;-83
2023/05/23 08:20:29;;;;;;;13.20;6.28;;;;;;;19.16;61.78;100395.81;5028348;28;20045;-83
2023/05/23 08:23:00;;;;;;;123.65;20.42;;;;;;;19.14;60.68;100393.25;5051451;28;20037;-84
2023/05/23 08:25:30;;;;;;;30.40;9.00;;;;;;;19.29;63.29;100388.78;5031121;28;20205;-83
2023/05/23 08:27:58;;;;;;;7.05;6.25;;;;;;;19.48;61.88;100392.06;5050170;28;20036;-82
2023/05/23 08:30:25;;;;;;;9.40;6.07;;;;;;;19.65;58.70;100389.22;5035755;28;20033;-82
2023/05/23 08:32:52;;;;;;;13.18;6.88;;;;;;;19.82;60.08;100382.81;5033680;28;20115;-82
2023/05/23 08:35:19;;;;;;;7.65;6.85;;;;;;;20.16;57.27;100377.97;5017108;28;20253;-81
2023/05/23 08:37:46;;;;;;;8.15;6.25;;;;;;;20.34;56.92;100389.31;5045195;28;20044;-83
2023/05/23 08:40:18;;;;;;;18.30;7.30;;;;;;;20.42;57.67;100390.53;5030934;28;20049;-82
2023/05/23 08:42:48;;;;;;;7.97;6.03;;;;;;;20.45;55.37;100389.53;5017690;28;20044;-81
2023/05/23 08:45:16;;;;;;;9.80;6.50;;;;;;;19.62;54.60;100394.78;5033346;28;20067;-81
2023/05/23 08:47:43;;;;;;;10.13;6.05;;;;;;;19.59;56.23;100405.72;5033471;28;20094;-82
2023/05/23 08:50:15;;;;;;;12.10;6.70;;;;;;;20.18;57.85;100394.84;5038797;28;20409;-81
2023/05/23 08:52:54;;;;;;;7.68;5.78;;;;;;;20.97;54.60;100399.47;5062745;28;20144;-80
2023/05/23 08:55:26;;;;;;;9.80;6.07;;;;;;;21.48;53.42;100394.19;5032968;28;20045;-81
2023/05/23 08:57:54;;;;;;;7.05;5.90;;;;;;;21.93;51.48;100396.28;5012732;28;20405;-82
2023/05/23 09:00:22;;;;;;;7.28;5.88;;;;;;;22.09;47.06;100395.22;5022730;28;20052;-81
2023/05/23 09:02:48;;;;;;;7.43;6.03;;;;;;;22.28;48.69;100401.00;5034164;28;20037;-83
2023/05/23 09:05:16;;;;;;;296.90;39.17;;;;;;;20.95;48.90;100398.72;5019371;28;20073;-84
2023/05/23 09:07:46;;;;;;;21.00;7.05;;;;;;;21.44;48.38;100404.31;5027909;28;20069;-82
2023/05/23 09:10:15;;;;;;;8.75;5.78;;;;;;;21.83;51.15;100402.44;5034703;28;20051;-82
2023/05/23 09:12:42;;;;;;;27.50;8.52;;;;;;;22.10;49.94;100403.19;5068162;28;20569;-80
2023/05/23 09:15:10;;;;;;;6.80;6.15;;;;;;;21.96;48.23;100403.31;5034558;28;20036;-83
2023/05/23 09:17:37;;;;;;;6.82;5.28;;;;;;;21.75;48.35;100411.06;5015135;28;20080;-82
2023/05/23 09:20:15;;;;;;;6.70;5.88;;;;;;;21.91;48.91;100409.00;5017967;28;20049;-83
2023/05/23 09:22:48;;;;;;;6.28;5.68;;;;;;;22.11;50.17;100404.94;5034025;28;20087;-82
2023/05/23 09:25:15;;;;;;;31.58;9.57;;;;;;;21.97;48.42;100404.16;5051195;28;20037;-80
2023/05/23 09:27:42;;;;;;;11.38;6.22;;;;;;;21.99;49.86;100397.69;5034123;28;20033;-81
2023/05/23 09:30:13;;;;;;;9.10;7.00;;;;;;;21.92;49.02;100399.94;5017635;28;20044;-82
2023/05/23 09:32:40;;;;;;;20.05;8.15;;;;;;;21.76;48.35;100398.47;5034699;28;20107;-81
2023/05/23 09:35:12;;;;;;;9.05;6.43;;;;;;;21.87;49.97;100398.59;5033649;28;20132;-79
2023/05/23 09:37:47;;;;;;;8.00;6.00;;;;;;;21.89;48.37;100404.72;5066999;28;20102;-82
2023/05/23 09:40:14;;;;;;;6.00;5.40;;;;;;;21.91;50.19;100402.75;5032161;28;20552;-80
2023/05/23 09:42:44;;;;;;;7.97;6.30;;;;;;;21.67;48.53;100397.28;5030723;28;20106;-82
2023/05/23 09:45:15;;;;;;;7.47;6.00;;;;;;;21.72;49.02;100405.91;5046076;28;20475;-80
2023/05/23 09:47:52;;;;;;;5.88;5.28;;;;;;;21.61;50.42;100403.13;5049611;28;20498;-80
2023/05/23 09:50:20;;;;;;;7.32;5.55;;;;;;;21.57;48.49;100407.84;5016192;28;20037;-81
2023/05/23 09:52:47;;;;;;;7.40;5.57;;;;;;;21.69;49.00;100416.00;5032166;28;20757;-82
2023/05/23 09:55:14;;;;;;;8.40;6.07;;;;;;;21.86;50.76;100405.78;5016798;28;20414;-82
2023/05/23 09:57:41;;;;;;;10.15;5.88;;;;;;;22.14;47.92;100412.75;5049919;28;20376;-81
2023/05/23 10:00:12;;;;;;;85.25;16.40;;;;;;;22.29;47.57;100404.56;5049834;28;20136;-81
2023/05/23 10:03:12;;;;;;;21.92;7.50;;;;;;;22.77;46.33;100405.41;5046095;28;20065;-80
2023/05/23 10:05:50;;;;;;;7.38;5.35;;;;;;;22.90;45.74;100411.63;5018541;28;20041;-82
2023/05/23 10:08:21;;;;;;;6.65;5.10;;;;;;;22.88;46.15;100410.91;5016338;28;20148;-80
2023/05/23 10:10:57;;;;;;;8.00;5.72;;;;;;;22.86;47.16;100410.13;5034721;28;20045;-81
2023/05/23 10:13:25;;;;;;;8.05;5.82;;;;;;;23.19;45.72;100408.53;5052278;28;20139;-81
2023/05/23 10:16:16;;;;;;;7.60;5.43;;;;;;;23.35;44.21;100410.91;5037134;28;20482;-80
2023/05/23 10:18:43;;;;;;;6.75;5.32;;;;;;;23.88;44.05;100412.13;5037094;28;20040;-83
2023/05/23 10:21:18;;;;;;;10.73;6.30;;;;;;;24.39;43.22;100415.19;5018826;28;20045;-82
2023/05/23 10:23:46;;;;;;;7.40;6.57;;;;;;;24.61;40.94;100402.59;5047605;28;20147;-82
2023/05/23 10:26:13;;;;;;;7.18;6.07;;;;;;;24.57;41.50;100399.28;5017683;28;20636;-81
2023/05/23 10:28:40;;;;;;;6.05;5.47;;;;;;;24.87;42.16;100400.41;5064430;28;20183;-81
2023/05/23 10:31:07;;;;;;;5.82;5.22;;;;;;;25.03;42.31;100394.59;5022102;28;20087;-80
2023/05/23 10:33:39;;;;;;;6.32;5.20;;;;;;;25.14;41.81;100408.03;5033447;28;20116;-82
2023/05/23 10:36:13;;;;;;;7.72;5.10;;;;;;;24.83;40.69;100407.06;5044361;28;20048;-82
2023/05/23 10:38:45;;;;;;;7.18;5.68;;;;;;;24.51;42.19;100410.59;5016715;28;20044;-82
2023/05/23 10:41:25;;;;;;;7.13;5.53;;;;;;;24.52;41.99;100409.59;5019657;28;20048;-83
2023/05/23 10:44:09;;;;;;;6.68;5.80;;;;;;;24.27;41.55;100412.56;5028127;28;20055;-82
2023/05/23 10:47:02;;;;;;;6.78;5.22;;;;;;;24.09;42.29;100412.22;5026308;28;20047;-81
2023/05/23 10:49:43;;;;;;;;;;;;;;;23.70;42.23;100410.88;5034791;28;20355;-82
2023/05/23 10:52:12;;;;;;;7.47;5.78;;;;;;;23.33;43.12;100413.72;5063206;28;19928;-83
2023/05/23 10:54:46;;;;;;;5.90;5.30;;;;;;;23.37;43.55;100415.19;5034204;28;20347;-83
2023/05/23 10:57:21;;;;;;;7.22;5.45;;;;;;;23.05;46.05;100427.63;5014602;28;20067;-82
2023/05/23 10:59:51;;;;;;;7.03;5.18;;;;;;;22.95;45.47;100425.63;5043604;28;20065;-83
2023/05/23 11:02:19;;;;;;;6.10;5.50;;;;;;;22.86;45.70;100423.59;5027938;28;20067;-81
2023/05/23 11:04:47;;;;;;;7.05;5.55;;;;;;;22.91;45.57;100434.91;5017543;28;20037;-83
2023/05/23 11:07:32;;;;;;;8.65;5.95;;;;;;;22.57;46.76;100435.66;5034847;28;20079;-84
2023/05/23 11:10:03;;;;;;;6.60;5.68;;;;;;;22.39;46.69;100440.59;5022998;28;20120;-83
2023/05/23 11:12:41;;;;;;;7.03;5.30;;;;;;;22.60;47.57;100436.28;5043278;28;20044;-83
2023/05/23 11:15:17;;;;;;;15.57;6.30;;;;;;;22.76;47.83;100433.31;5017566;28;20053;-84
2023/05/23 11:17:54;;;;;;;7.32;5.45;;;;;;;23.09;47.82;100427.25;5030019;28;20131;-80
2023/05/23 11:20:27;;;;;;;7.65;5.53;;;;;;;22.87;47.39;100433.44;5056486;28;20124;-82
2023/05/23 11:22:59;;;;;;;18.58;6.80;;;;;;;22.86;47.96;100425.44;5025023;28;20493;-83
2023/05/23 11:25:59;;;;;;;7.78;5.68;;;;;;;23.11;49.26;100422.59;5039565;28;20461;-82
2023/05/23 11:28:27;;;;;;;6.57;5.90;;;;;;;23.02;46.16;100424.16;4982694;28;20529;-79
2023/05/23 11:30:56;;;;;;;8.43;5.75;;;;;;;22.99;47.88;100435.19;5048126;28;20045;-81